createdAt,value
2018-02-09T00:00:23.472Z,1017.24
2018-02-09T00:01:23.872Z,1017.21
2018-02-09T00:02:24.311Z,1017.23
2018-02-09T00:03:24.739Z,1017.20
2018-02-09T00:04:25.120Z,1017.22
2018-02-09T00:05:25.562Z,1017.23
2018-02-09T00:06:25.948Z,1017.24
2018-02-09T00:07:26.366Z,1017.23
2018-02-09T00:08:26.815Z,1017.27
2018-02-09T00:09:27.199Z,1017.23
2018-02-09T00:10:27.671Z,1017.29
2018-02-09T00:11:28.032Z,1017.29
2018-02-09T00:12:28.462Z,1017.28
2018-02-09T00:13:28.891Z,1017.29
2018-02-09T00:14:29.304Z,1017.27
2018-02-09T00:15:29.697Z,1017.29
2018-02-09T00:16:30.115Z,1017.29
2018-02-09T00:17:30.530Z,1017.28
2018-02-09T00:18:30.958Z,1017.27
2018-02-09T00:19:31.421Z,1017.26
2018-02-09T00:20:32.478Z,1017.28
2018-02-09T00:21:32.207Z,1017.27
2018-02-09T00:22:32.626Z,1017.32
2018-02-09T00:23:33.049Z,1017.31
2018-02-09T00:24:33.464Z,1017.26
2018-02-09T00:25:33.879Z,1017.29
2018-02-09T00:26:34.307Z,1017.30
2018-02-09T00:27:34.698Z,1017.29
2018-02-09T00:28:35.120Z,1017.26
2018-02-09T00:29:35.530Z,1017.25
2018-02-09T00:30:35.960Z,1017.29
2018-02-09T00:31:36.358Z,1017.28
2018-02-09T00:32:36.785Z,1017.29
2018-02-09T00:33:37.192Z,1017.35
2018-02-09T00:34:37.609Z,1017.30
2018-02-09T00:35:38.041Z,1017.34
2018-02-09T00:36:38.443Z,1017.29
2018-02-09T00:37:38.862Z,1017.28
2018-02-09T00:38:39.276Z,1017.30
2018-02-09T00:39:39.685Z,1017.27
2018-02-09T00:40:40.121Z,1017.25
2018-02-09T00:41:40.533Z,1017.24
2018-02-09T00:42:40.952Z,1017.29
2018-02-09T00:43:41.352Z,1017.27
2018-02-09T00:44:41.770Z,1017.29
2018-02-09T00:45:42.200Z,1017.27
2018-02-09T00:46:42.623Z,1017.27
2018-02-09T00:47:43.017Z,1017.29
2018-02-09T00:48:43.448Z,1017.24
2018-02-09T00:49:43.845Z,1017.22
2018-02-09T00:50:44.287Z,1017.25
2018-02-09T00:51:44.679Z,1017.22
2018-02-09T00:52:45.103Z,1017.25
2018-02-09T00:53:45.510Z,1017.20
2018-02-09T00:54:45.961Z,1017.21
2018-02-09T00:55:46.371Z,1017.21
2018-02-09T00:56:46.760Z,1017.23
2018-02-09T00:57:47.208Z,1017.19
2018-02-09T00:58:47.613Z,1017.19
2018-02-09T00:59:48.100Z,1017.21
2018-02-09T01:00:48.451Z,1017.20
2018-02-09T01:01:48.841Z,1017.22
2018-02-09T01:02:49.269Z,1017.20
2018-02-09T01:03:49.697Z,1017.22
2018-02-09T01:04:50.144Z,1017.24
2018-02-09T01:05:50.533Z,1017.19
2018-02-09T01:06:50.930Z,1017.19
2018-02-09T01:07:51.393Z,1017.19
2018-02-09T01:08:51.768Z,1017.18
2018-02-09T01:09:52.210Z,1017.20
2018-02-09T01:10:52.596Z,1017.19
2018-02-09T01:11:53.007Z,1017.19
2018-02-09T01:12:53.421Z,1017.22
2018-02-09T01:13:53.836Z,1017.18
2018-02-09T01:14:54.254Z,1017.18
2018-02-09T01:15:54.676Z,1017.16
2018-02-09T01:16:55.087Z,1017.18
2018-02-09T01:17:55.497Z,1017.18
2018-02-09T01:18:55.910Z,1017.17
2018-02-09T01:19:56.330Z,1017.15
2018-02-09T01:20:56.742Z,1017.15
2018-02-09T01:21:57.156Z,1017.14
2018-02-09T01:22:57.578Z,1017.12
2018-02-09T01:23:57.987Z,1017.11
2018-02-09T01:24:58.407Z,1017.13
2018-02-09T01:25:58.824Z,1017.11
2018-02-09T01:26:59.236Z,1017.11
2018-02-09T01:27:59.655Z,1017.09
2018-02-09T01:29:00.070Z,1017.10
2018-02-09T01:30:00.485Z,1017.10
2018-02-09T01:31:00.899Z,1017.09
2018-02-09T01:32:01.319Z,1017.05
2018-02-09T01:33:01.736Z,1017.04
2018-02-09T01:34:02.151Z,1017.04
2018-02-09T01:35:02.567Z,1017.04
2018-02-09T01:36:02.984Z,1017.00
2018-02-09T01:37:03.392Z,1017.00
2018-02-09T01:38:03.807Z,1017.00
2018-02-09T01:39:04.223Z,1017.02
2018-02-09T01:40:04.640Z,1017.03
2018-02-09T01:41:05.058Z,1017.02
2018-02-09T01:42:05.471Z,1017.04
2018-02-09T01:43:05.884Z,1017.03
2018-02-09T01:44:06.320Z,1017.03
2018-02-09T01:45:06.721Z,1017.02
2018-02-09T01:46:07.141Z,1016.98
2018-02-09T01:47:07.550Z,1016.95
2018-02-09T01:48:07.967Z,1016.97
2018-02-09T01:49:08.381Z,1016.95
2018-02-09T01:50:08.803Z,1016.94
2018-02-09T01:51:09.215Z,1016.97
2018-02-09T01:52:09.644Z,1016.91
2018-02-09T01:53:10.037Z,1016.93
2018-02-09T01:54:10.463Z,1016.91
2018-02-09T01:55:10.885Z,1016.91
2018-02-09T01:56:11.297Z,1016.88
2018-02-09T01:57:11.698Z,1016.86
2018-02-09T01:58:12.117Z,1016.87
2018-02-09T01:59:12.529Z,1016.83
2018-02-09T02:00:12.946Z,1016.86
2018-02-09T02:01:13.361Z,1016.84
2018-02-09T02:02:13.783Z,1016.84
2018-02-09T02:03:14.193Z,1016.85
2018-02-09T02:04:14.613Z,1016.79
2018-02-09T02:05:15.023Z,1016.83
2018-02-09T02:06:15.442Z,1016.82
2018-02-09T02:07:15.851Z,1016.81
2018-02-09T02:08:16.270Z,1016.80
2018-02-09T02:09:16.680Z,1016.76
2018-02-09T02:10:17.122Z,1016.77
2018-02-09T02:11:17.513Z,1016.78
2018-02-09T02:12:17.928Z,1016.76
2018-02-09T02:13:18.345Z,1016.73
2018-02-09T02:14:18.762Z,1016.72
2018-02-09T02:15:19.171Z,1016.73
2018-02-09T02:16:19.585Z,1016.74
2018-02-09T02:17:20.002Z,1016.75
2018-02-09T02:18:20.426Z,1016.74
2018-02-09T02:19:20.831Z,1016.75
2018-02-09T02:20:21.253Z,1016.75
2018-02-09T02:21:21.665Z,1016.74
2018-02-09T02:22:22.084Z,1016.70
2018-02-09T02:23:22.490Z,1016.71
2018-02-09T02:24:22.903Z,1016.71
2018-02-09T02:25:23.317Z,1016.70
2018-02-09T02:26:23.732Z,1016.69
2018-02-09T02:27:24.149Z,1016.68
2018-02-09T02:28:24.562Z,1016.67
2018-02-09T02:29:24.975Z,1016.67
2018-02-09T02:30:25.393Z,1016.64
2018-02-09T02:31:25.808Z,1016.61
2018-02-09T02:32:26.224Z,1016.64
2018-02-09T02:33:26.640Z,1016.63
2018-02-09T02:34:27.065Z,1016.60
2018-02-09T02:35:27.470Z,1016.62
2018-02-09T02:36:27.886Z,1016.59
2018-02-09T02:37:28.297Z,1016.56
2018-02-09T02:38:28.715Z,1016.56
2018-02-09T02:39:29.131Z,1016.59
2018-02-09T02:40:29.560Z,1016.57
2018-02-09T02:41:29.965Z,1016.58
2018-02-09T02:42:30.368Z,1016.57
2018-02-09T02:43:30.783Z,1016.59
2018-02-09T02:44:31.196Z,1016.60
2018-02-09T02:45:31.611Z,1016.60
2018-02-09T02:46:32.040Z,1016.60
2018-02-09T02:47:32.444Z,1016.56
2018-02-09T02:48:32.868Z,1016.56
2018-02-09T02:49:33.270Z,1016.51
2018-02-09T02:50:33.697Z,1016.55
2018-02-09T02:51:34.106Z,1016.54
2018-02-09T02:52:34.524Z,1016.51
2018-02-09T02:53:34.935Z,1016.53
2018-02-09T02:54:35.351Z,1016.53
2018-02-09T02:55:35.794Z,1016.49
2018-02-09T02:56:36.181Z,1016.46
2018-02-09T02:57:36.587Z,1016.48
2018-02-09T02:58:37.014Z,1016.47
2018-02-09T02:59:37.421Z,1016.45
2018-02-09T03:00:37.838Z,1016.48
2018-02-09T03:01:38.261Z,1016.45
2018-02-09T03:02:38.679Z,1016.45
2018-02-09T03:03:39.081Z,1016.47
2018-02-09T03:04:39.497Z,1016.47
2018-02-09T03:05:39.912Z,1016.48
2018-02-09T03:06:40.320Z,1016.44
2018-02-09T03:07:40.736Z,1016.39
2018-02-09T03:08:41.152Z,1016.39
2018-02-09T03:09:41.564Z,1016.32
2018-02-09T03:10:41.982Z,1016.35
2018-02-09T03:11:42.393Z,1016.30
2018-02-09T03:12:42.809Z,1016.31
2018-02-09T03:13:43.226Z,1016.27
2018-02-09T03:14:43.642Z,1016.29
2018-02-09T03:15:44.057Z,1016.25
2018-02-09T03:16:44.473Z,1016.26
2018-02-09T03:17:44.889Z,1016.24
2018-02-09T03:18:45.297Z,1016.25
2018-02-09T03:19:45.715Z,1016.20
2018-02-09T03:20:46.129Z,1016.19
2018-02-09T03:21:46.549Z,1016.20
2018-02-09T03:22:46.959Z,1016.16
2018-02-09T03:23:47.423Z,1016.19
2018-02-09T03:24:47.785Z,1016.14
2018-02-09T03:25:48.210Z,1016.14
2018-02-09T03:26:48.615Z,1016.15
2018-02-09T03:27:49.030Z,1016.15
2018-02-09T03:28:49.446Z,1016.12
2018-02-09T03:29:49.859Z,1016.13
2018-02-09T03:30:50.276Z,1016.16
2018-02-09T03:31:50.687Z,1016.17
2018-02-09T03:32:51.900Z,1016.17
2018-02-09T03:33:51.506Z,1016.13
2018-02-09T03:34:51.929Z,1016.11
2018-02-09T03:35:52.343Z,1016.11
2018-02-09T03:36:52.759Z,1016.13
2018-02-09T03:37:53.173Z,1016.10
2018-02-09T03:38:53.586Z,1016.16
2018-02-09T03:39:54.003Z,1016.15
2018-02-09T03:40:54.420Z,1016.11
2018-02-09T03:41:54.833Z,1016.11
2018-02-09T03:42:55.249Z,1016.12
2018-02-09T03:43:55.657Z,1016.12
2018-02-09T03:44:56.074Z,1016.15
2018-02-09T03:45:56.490Z,1016.13
2018-02-09T03:46:56.921Z,1016.12
2018-02-09T03:47:57.333Z,1016.11
2018-02-09T03:48:57.739Z,1016.11
2018-02-09T03:49:58.142Z,1016.12
2018-02-09T03:50:58.558Z,1016.12
2018-02-09T03:51:58.973Z,1016.13
2018-02-09T03:52:59.386Z,1016.13
2018-02-09T03:53:59.797Z,1016.12
2018-02-09T03:55:00.216Z,1016.14
2018-02-09T03:56:00.627Z,1016.12
2018-02-09T03:57:01.043Z,1016.14
2018-02-09T03:58:01.465Z,1016.15
2018-02-09T03:59:01.872Z,1016.14
2018-02-09T04:00:02.305Z,1016.12
2018-02-09T04:01:02.706Z,1016.15
2018-02-09T04:02:03.134Z,1016.12
2018-02-09T04:03:03.539Z,1016.19
2018-02-09T04:04:03.965Z,1016.15
2018-02-09T04:05:04.355Z,1016.19
2018-02-09T04:06:04.770Z,1016.13
2018-02-09T04:07:05.187Z,1016.14
2018-02-09T04:08:05.599Z,1016.14
2018-02-09T04:09:06.018Z,1016.14
2018-02-09T04:11:39.514Z,1016.10
2018-02-09T04:12:39.926Z,1016.14
2018-02-09T04:14:34.489Z,1016.08
2018-02-09T04:15:34.858Z,1016.08
2018-02-09T04:17:29.410Z,1016.09
2018-02-09T04:18:29.812Z,1016.08
2018-02-09T04:19:30.241Z,1016.05
2018-02-09T04:20:30.638Z,1016.01
2018-02-09T04:21:31.055Z,1016.04
2018-02-09T04:22:31.470Z,1016.04
2018-02-09T04:23:31.916Z,1016.03
2018-02-09T04:24:32.299Z,1016.03
2018-02-09T04:25:32.722Z,1015.99
2018-02-09T04:26:33.127Z,1016.01
2018-02-09T04:27:33.544Z,1016.00
2018-02-09T04:28:33.971Z,1016.02
2018-02-09T04:29:34.373Z,1016.04
2018-02-09T04:30:34.792Z,1015.99
2018-02-09T04:31:35.214Z,1016.01
2018-02-09T04:32:35.629Z,1016.01
2018-02-09T04:33:36.041Z,1016.02
2018-02-09T04:34:36.463Z,1016.02
2018-02-09T04:35:36.867Z,1016.01
2018-02-09T04:36:37.270Z,1015.99
2018-02-09T04:37:37.686Z,1016.00
2018-02-09T04:38:38.097Z,1015.98
2018-02-09T04:39:38.511Z,1015.96
2018-02-09T04:40:38.924Z,1015.96
2018-02-09T04:41:39.339Z,1016.01
2018-02-09T04:42:39.753Z,1015.99
2018-02-09T04:43:40.167Z,1015.99
2018-02-09T04:44:40.586Z,1015.94
2018-02-09T04:45:40.999Z,1015.98
2018-02-09T04:46:41.412Z,1015.99
2018-02-09T04:47:41.830Z,1016.00
2018-02-09T04:48:42.241Z,1016.05
2018-02-09T04:49:42.656Z,1015.99
2018-02-09T04:50:43.072Z,1016.01
2018-02-09T04:51:43.493Z,1016.02
2018-02-09T04:52:43.898Z,1015.98
2018-02-09T04:53:44.341Z,1015.98
2018-02-09T04:54:44.731Z,1015.98
2018-02-09T04:55:45.149Z,1015.95
2018-02-09T04:56:45.574Z,1015.92
2018-02-09T04:57:45.974Z,1015.93
2018-02-09T04:58:46.384Z,1015.93
2018-02-09T04:59:46.801Z,1015.95
2018-02-09T05:00:47.227Z,1015.95
2018-02-09T05:01:47.630Z,1016.00
2018-02-09T05:02:48.090Z,1015.98
2018-02-09T05:03:48.462Z,1015.99
2018-02-09T05:04:48.879Z,1015.97
2018-02-09T05:05:49.296Z,1015.97
2018-02-09T05:06:49.711Z,1015.99
2018-02-09T05:07:50.113Z,1015.95
2018-02-09T05:08:50.530Z,1015.95
2018-02-09T05:09:50.946Z,1015.98
2018-02-09T05:10:51.362Z,1015.93
2018-02-09T05:11:51.802Z,1015.95
2018-02-09T05:12:52.188Z,1015.98
2018-02-09T05:13:52.603Z,1015.98
2018-02-09T05:14:53.020Z,1015.94
2018-02-09T05:15:53.433Z,1015.92
2018-02-09T05:16:53.847Z,1015.92
2018-02-09T05:17:54.262Z,1015.95
2018-02-09T05:18:54.693Z,1015.91
2018-02-09T05:19:55.091Z,1015.93
2018-02-09T05:20:55.505Z,1015.94
2018-02-09T05:21:55.927Z,1015.91
2018-02-09T05:22:56.334Z,1015.90
2018-02-09T05:23:56.754Z,1015.89
2018-02-09T05:24:57.170Z,1015.87
2018-02-09T05:25:57.597Z,1015.90
2018-02-09T05:26:58.016Z,1015.86
2018-02-09T05:27:58.448Z,1015.90
2018-02-09T05:28:58.823Z,1015.88
2018-02-09T05:29:59.255Z,1015.86
2018-02-09T05:30:59.654Z,1015.85
2018-02-09T05:32:00.067Z,1015.86
2018-02-09T05:33:00.482Z,1015.84
2018-02-09T05:34:00.898Z,1015.83
2018-02-09T05:35:01.335Z,1015.84
2018-02-09T05:36:01.724Z,1015.86
2018-02-09T05:37:02.139Z,1015.80
2018-02-09T05:38:02.554Z,1015.81
2018-02-09T05:39:02.968Z,1015.77
2018-02-09T05:40:03.384Z,1015.74
2018-02-09T05:41:03.816Z,1015.76
2018-02-09T05:42:04.213Z,1015.78
2018-02-09T05:43:04.630Z,1015.79
2018-02-09T05:44:05.041Z,1015.78
2018-02-09T05:45:05.458Z,1015.81
2018-02-09T05:46:05.876Z,1015.78
2018-02-09T05:47:06.291Z,1015.82
2018-02-09T05:48:06.702Z,1015.80
2018-02-09T05:49:07.120Z,1015.79
2018-02-09T05:50:07.538Z,1015.80
2018-02-09T05:51:07.949Z,1015.75
2018-02-09T05:52:08.360Z,1015.78
2018-02-09T05:53:08.786Z,1015.76
2018-02-09T05:54:09.193Z,1015.72
2018-02-09T05:55:09.604Z,1015.71
2018-02-09T05:56:10.021Z,1015.71
2018-02-09T05:57:10.436Z,1015.73
2018-02-09T05:58:10.861Z,1015.71
2018-02-09T05:59:11.283Z,1015.73
2018-02-09T06:00:11.682Z,1015.73
2018-02-09T06:01:12.095Z,1015.69
2018-02-09T06:02:12.511Z,1015.66
2018-02-09T06:03:12.925Z,1015.68
2018-02-09T06:04:13.343Z,1015.58
2018-02-09T06:05:13.753Z,1015.64
2018-02-09T06:06:14.168Z,1015.59
2018-02-09T06:07:14.583Z,1015.60
2018-02-09T06:08:14.998Z,1015.62
2018-02-09T06:09:15.432Z,1015.63
2018-02-09T06:10:15.831Z,1015.58
2018-02-09T06:11:16.247Z,1015.61
2018-02-09T06:12:16.666Z,1015.60
2018-02-09T06:13:17.078Z,1015.59
2018-02-09T06:14:17.494Z,1015.58
2018-02-09T06:15:17.918Z,1015.58
2018-02-09T06:16:18.321Z,1015.56
2018-02-09T06:17:18.737Z,1015.61
2018-02-09T06:18:19.151Z,1015.57
2018-02-09T06:19:19.566Z,1015.57
2018-02-09T06:20:19.982Z,1015.58
2018-02-09T06:21:20.398Z,1015.57
2018-02-09T06:22:20.812Z,1015.57
2018-02-09T06:23:21.228Z,1015.52
2018-02-09T06:24:21.645Z,1015.56
2018-02-09T06:25:22.061Z,1015.58
2018-02-09T06:26:22.473Z,1015.58
2018-02-09T06:27:22.887Z,1015.54
2018-02-09T06:28:23.303Z,1015.58
2018-02-09T06:29:23.720Z,1015.59
2018-02-09T06:30:24.141Z,1015.62
2018-02-09T06:31:24.553Z,1015.63
2018-02-09T06:32:24.963Z,1015.56
2018-02-09T06:33:25.416Z,1015.59
2018-02-09T06:34:25.802Z,1015.50
2018-02-09T06:35:26.211Z,1015.56
2018-02-09T06:36:26.627Z,1015.59
2018-02-09T06:37:27.043Z,1015.54
2018-02-09T06:38:27.464Z,1015.54
2018-02-09T06:39:27.874Z,1015.53
2018-02-09T06:40:28.291Z,1015.51
2018-02-09T06:41:28.708Z,1015.50
2018-02-09T06:42:29.121Z,1015.53
2018-02-09T06:43:29.537Z,1015.55
2018-02-09T06:44:29.956Z,1015.53
2018-02-09T06:45:30.373Z,1015.56
2018-02-09T06:46:30.787Z,1015.57
2018-02-09T06:47:31.203Z,1015.59
2018-02-09T06:48:31.619Z,1015.59
2018-02-09T06:49:32.035Z,1015.60
2018-02-09T06:50:32.450Z,1015.61
2018-02-09T06:51:32.868Z,1015.57
2018-02-09T06:52:33.285Z,1015.60
2018-02-09T06:53:33.701Z,1015.59
2018-02-09T06:54:34.119Z,1015.56
2018-02-09T06:55:34.533Z,1015.60
2018-02-09T06:56:34.946Z,1015.57
2018-02-09T06:57:35.398Z,1015.57
2018-02-09T06:58:35.782Z,1015.57
2018-02-09T06:59:36.203Z,1015.56
2018-02-09T07:00:36.619Z,1015.59
2018-02-09T07:01:37.030Z,1015.56
2018-02-09T07:02:37.480Z,1015.57
2018-02-09T07:03:37.863Z,1015.63
2018-02-09T07:04:38.270Z,1015.58
2018-02-09T07:05:38.696Z,1015.59
2018-02-09T07:06:39.114Z,1015.59
2018-02-09T07:07:39.538Z,1015.58
2018-02-09T07:08:39.948Z,1015.59
2018-02-09T07:09:40.350Z,1015.61
2018-02-09T07:10:40.765Z,1015.62
2018-02-09T07:11:41.182Z,1015.59
2018-02-09T07:12:41.612Z,1015.58
2018-02-09T07:13:42.018Z,1015.57
2018-02-09T07:14:42.430Z,1015.59
2018-02-09T07:15:42.848Z,1015.58
2018-02-09T07:16:43.263Z,1015.59
2018-02-09T07:17:43.683Z,1015.63
2018-02-09T07:18:44.100Z,1015.65
2018-02-09T07:19:44.512Z,1015.60
2018-02-09T07:20:44.939Z,1015.63
2018-02-09T07:21:45.347Z,1015.66
2018-02-09T07:22:45.799Z,1015.68
2018-02-09T07:23:46.182Z,1015.71
2018-02-09T07:24:46.599Z,1015.65
2018-02-09T07:25:47.012Z,1015.65
2018-02-09T07:26:47.427Z,1015.66
2018-02-09T07:27:47.844Z,1015.62
2018-02-09T07:28:48.259Z,1015.62
2018-02-09T07:29:48.677Z,1015.61
2018-02-09T07:30:49.104Z,1015.61
2018-02-09T07:31:49.508Z,1015.59
2018-02-09T07:32:49.968Z,1015.58
2018-02-09T07:33:50.344Z,1015.63
2018-02-09T07:34:50.758Z,1015.58
2018-02-09T07:35:51.176Z,1015.58
2018-02-09T07:36:51.595Z,1015.56
2018-02-09T07:37:52.011Z,1015.55
2018-02-09T07:38:52.426Z,1015.52
2018-02-09T07:39:52.847Z,1015.48
2018-02-09T07:40:53.300Z,1015.49
2018-02-09T07:41:53.703Z,1015.47
2018-02-09T07:42:54.096Z,1015.49
2018-02-09T07:43:54.523Z,1015.51
2018-02-09T07:44:54.928Z,1015.51
2018-02-09T07:45:55.352Z,1015.50
2018-02-09T07:46:55.761Z,1015.51
2018-02-09T07:47:56.196Z,1015.50
2018-02-09T07:48:56.605Z,1015.50
2018-02-09T07:49:57.032Z,1015.46
2018-02-09T07:50:57.444Z,1015.46
2018-02-09T07:51:57.852Z,1015.45
2018-02-09T07:52:58.268Z,1015.43
2018-02-09T07:53:58.685Z,1015.45
2018-02-09T07:54:59.102Z,1015.45
2018-02-09T07:55:59.518Z,1015.42
2018-02-09T07:56:59.940Z,1015.43
2018-02-09T07:58:00.355Z,1015.42
2018-02-09T07:59:00.774Z,1015.36
2018-02-09T08:00:01.189Z,1015.43
2018-02-09T08:01:01.609Z,1015.40
2018-02-09T08:02:02.028Z,1015.37
2018-02-09T08:03:02.440Z,1015.40
2018-02-09T08:04:02.857Z,1015.39
2018-02-09T08:05:03.289Z,1015.35
2018-02-09T08:06:03.691Z,1015.36
2018-02-09T08:07:04.114Z,1015.37
2018-02-09T08:08:04.530Z,1015.40
2018-02-09T08:09:04.944Z,1015.42
2018-02-09T08:10:05.365Z,1015.39
2018-02-09T08:11:05.802Z,1015.38
2018-02-09T08:12:06.198Z,1015.35
2018-02-09T08:13:06.615Z,1015.30
2018-02-09T08:14:07.052Z,1015.38
2018-02-09T08:15:07.451Z,1015.34
2018-02-09T08:16:07.869Z,1015.35
2018-02-09T08:17:08.283Z,1015.35
2018-02-09T08:18:08.700Z,1015.33
2018-02-09T08:19:09.216Z,1015.31
2018-02-09T08:20:09.539Z,1015.27
2018-02-09T08:21:09.956Z,1015.24
2018-02-09T08:22:10.373Z,1015.21
2018-02-09T08:23:10.816Z,1015.24
2018-02-09T08:24:11.214Z,1015.25
2018-02-09T08:25:11.631Z,1015.24
2018-02-09T08:26:12.053Z,1015.27
2018-02-09T08:27:12.467Z,1015.27
2018-02-09T08:28:12.883Z,1015.23
2018-02-09T08:29:13.301Z,1015.24
2018-02-09T08:30:13.719Z,1015.24
2018-02-09T08:31:14.138Z,1015.27
2018-02-09T08:32:14.554Z,1015.27
2018-02-09T08:33:14.980Z,1015.24
2018-02-09T08:34:15.408Z,1015.24
2018-02-09T08:35:15.813Z,1015.26
2018-02-09T08:36:16.230Z,1015.26
2018-02-09T08:37:16.652Z,1015.28
2018-02-09T08:38:17.068Z,1015.30
2018-02-09T08:39:17.485Z,1015.34
2018-02-09T08:40:17.946Z,1015.33
2018-02-09T08:41:18.321Z,1015.30
2018-02-09T08:42:18.738Z,1015.32
2018-02-09T08:43:19.157Z,1015.31
2018-02-09T08:44:19.575Z,1015.29
2018-02-09T08:45:19.997Z,1015.30
2018-02-09T08:46:20.414Z,1015.30
2018-02-09T08:47:20.831Z,1015.26
2018-02-09T08:48:21.253Z,1015.25
2018-02-09T08:49:21.673Z,1015.27
2018-02-09T08:50:22.090Z,1015.22
2018-02-09T08:51:22.506Z,1015.26
2018-02-09T08:52:22.923Z,1015.26
2018-02-09T08:53:23.345Z,1015.24
2018-02-09T08:54:23.759Z,1015.18
2018-02-09T08:55:24.182Z,1015.18
2018-02-09T08:56:24.599Z,1015.17
2018-02-09T08:57:25.026Z,1015.14
2018-02-09T08:58:25.448Z,1015.15
2018-02-09T08:59:25.901Z,1015.14
2018-02-09T09:00:26.273Z,1015.15
2018-02-09T09:01:26.696Z,1015.17
2018-02-09T09:02:27.114Z,1015.13
2018-02-09T09:03:27.535Z,1015.11
2018-02-09T09:04:27.947Z,1015.12
2018-02-09T09:05:28.377Z,1015.12
2018-02-09T09:06:28.837Z,1015.13
2018-02-09T09:07:29.206Z,1015.11
2018-02-09T09:08:29.626Z,1015.13
2018-02-09T09:09:30.043Z,1015.10
2018-02-09T09:10:30.463Z,1015.13
2018-02-09T09:11:30.897Z,1015.12
2018-02-09T09:12:31.301Z,1015.09
2018-02-09T09:13:31.724Z,1015.10
2018-02-09T09:14:32.142Z,1015.09
2018-02-09T09:15:32.560Z,1015.11
2018-02-09T09:16:33.059Z,1015.07
2018-02-09T09:17:33.396Z,1015.07
2018-02-09T09:18:33.822Z,1015.08
2018-02-09T09:19:34.243Z,1015.09
2018-02-09T09:20:34.658Z,1015.11
2018-02-09T09:21:35.083Z,1015.05
2018-02-09T09:22:35.500Z,1015.04
2018-02-09T09:23:35.925Z,1015.06
2018-02-09T09:24:36.337Z,1015.07
2018-02-09T09:25:36.762Z,1015.01
2018-02-09T09:26:37.188Z,1015.03
2018-02-09T09:27:37.605Z,1014.97
2018-02-09T09:28:38.022Z,1014.97
2018-02-09T09:29:38.443Z,1014.99
2018-02-09T09:30:38.870Z,1014.95
2018-02-09T09:31:39.288Z,1015.00
2018-02-09T09:32:39.715Z,1014.97
2018-02-09T09:33:40.133Z,1014.96
2018-02-09T09:34:40.555Z,1014.94
2018-02-09T09:35:40.979Z,1014.95
2018-02-09T09:36:41.405Z,1014.94
2018-02-09T09:37:41.850Z,1014.88
2018-02-09T09:38:42.250Z,1014.85
2018-02-09T09:39:42.670Z,1014.86
2018-02-09T09:40:43.101Z,1014.88
2018-02-09T09:41:43.525Z,1014.88
2018-02-09T09:42:43.942Z,1014.84
2018-02-09T09:43:44.369Z,1014.85
2018-02-09T09:44:44.792Z,1014.84
2018-02-09T09:45:45.227Z,1014.83
2018-02-09T09:46:45.642Z,1014.84
2018-02-09T09:47:46.065Z,1014.86
2018-02-09T09:48:46.490Z,1014.80
2018-02-09T09:49:46.955Z,1014.79
2018-02-09T09:50:47.341Z,1014.82
2018-02-09T09:51:47.768Z,1014.85
2018-02-09T09:52:48.192Z,1014.82
2018-02-09T09:53:48.617Z,1014.85
2018-02-09T09:54:49.048Z,1014.84
2018-02-09T09:55:49.468Z,1014.77
2018-02-09T09:56:49.894Z,1014.81
2018-02-09T09:57:50.340Z,1014.80
2018-02-09T09:58:50.749Z,1014.80
2018-02-09T09:59:51.174Z,1014.79
2018-02-09T10:00:51.599Z,1014.76
2018-02-09T10:01:52.034Z,1014.71
2018-02-09T10:02:52.450Z,1014.73
2018-02-09T10:03:52.887Z,1014.76
2018-02-09T10:04:53.304Z,1014.74
2018-02-09T10:05:53.729Z,1014.71
2018-02-09T10:06:54.157Z,1014.69
2018-02-09T10:07:54.632Z,1014.68
2018-02-09T10:08:55.014Z,1014.69
2018-02-09T10:09:55.438Z,1014.74
2018-02-09T10:10:55.862Z,1014.68
2018-02-09T10:11:56.291Z,1014.69
2018-02-09T10:12:56.720Z,1014.63
2018-02-09T10:13:57.148Z,1014.59
2018-02-09T10:14:57.580Z,1014.59
2018-02-09T10:15:58.000Z,1014.56
2018-02-09T10:16:59.171Z,1014.58
2018-02-09T10:17:58.855Z,1014.55
2018-02-09T10:18:59.284Z,1014.58
2018-02-09T10:19:59.711Z,1014.53
2018-02-09T10:21:00.146Z,1014.61
2018-02-09T10:22:00.567Z,1014.63
2018-02-09T10:23:00.994Z,1014.61
2018-02-09T10:24:01.424Z,1014.63
2018-02-09T10:25:01.847Z,1014.63
2018-02-09T10:26:02.274Z,1014.62
2018-02-09T10:27:02.708Z,1014.61
2018-02-09T10:28:03.129Z,1014.60
2018-02-09T10:29:03.554Z,1014.57
2018-02-09T10:30:03.977Z,1014.55
2018-02-09T10:31:04.407Z,1014.56
2018-02-09T10:32:04.828Z,1014.51
2018-02-09T10:33:05.257Z,1014.55
2018-02-09T10:34:05.684Z,1014.49
2018-02-09T10:35:06.107Z,1014.52
2018-02-09T10:36:06.527Z,1014.48
2018-02-09T10:37:06.953Z,1014.38
2018-02-09T10:38:07.395Z,1014.44
2018-02-09T10:39:07.803Z,1014.44
2018-02-09T10:40:08.230Z,1014.46
2018-02-09T10:41:08.656Z,1014.39
2018-02-09T10:42:09.093Z,1014.42
2018-02-09T10:43:09.510Z,1014.45
2018-02-09T10:44:09.934Z,1014.40
2018-02-09T10:45:10.387Z,1014.40
2018-02-09T10:46:10.789Z,1014.38
2018-02-09T10:47:11.212Z,1014.38
2018-02-09T10:48:11.636Z,1014.42
2018-02-09T10:49:12.064Z,1014.46
2018-02-09T10:50:12.508Z,1014.46
2018-02-09T10:51:12.914Z,1014.44
2018-02-09T10:52:13.340Z,1014.40
2018-02-09T10:53:13.769Z,1014.38
2018-02-09T10:54:14.193Z,1014.41
2018-02-09T10:55:14.619Z,1014.36
2018-02-09T10:56:15.044Z,1014.31
2018-02-09T10:57:15.487Z,1014.36
2018-02-09T10:58:15.901Z,1014.32
2018-02-09T10:59:16.324Z,1014.33
2018-02-09T11:00:16.754Z,1014.35
2018-02-09T11:01:17.177Z,1014.34
2018-02-09T11:02:17.604Z,1014.29
2018-02-09T11:03:18.037Z,1014.26
2018-02-09T11:04:18.459Z,1014.26
2018-02-09T11:05:18.901Z,1014.26
2018-02-09T11:06:19.329Z,1014.31
2018-02-09T11:07:19.749Z,1014.32
2018-02-09T11:08:20.181Z,1014.33
2018-02-09T11:09:20.604Z,1014.34
2018-02-09T11:10:21.037Z,1014.30
2018-02-09T11:11:21.469Z,1014.27
2018-02-09T11:12:21.894Z,1014.30
2018-02-09T11:13:22.317Z,1014.31
2018-02-09T11:14:22.753Z,1014.31
2018-02-09T11:15:23.176Z,1014.33
2018-02-09T11:16:23.609Z,1014.30
2018-02-09T11:17:24.042Z,1014.30
2018-02-09T11:18:24.487Z,1014.30
2018-02-09T11:19:24.909Z,1014.25
2018-02-09T11:20:25.328Z,1014.30
2018-02-09T11:21:25.759Z,1014.36
2018-02-09T11:22:26.188Z,1014.32
2018-02-09T11:23:26.627Z,1014.32
2018-02-09T11:24:27.049Z,1014.25
2018-02-09T11:25:27.478Z,1014.24
2018-02-09T11:26:27.920Z,1014.25
2018-02-09T11:27:28.335Z,1014.23
2018-02-09T11:28:28.764Z,1014.24
2018-02-09T11:29:29.199Z,1014.25
2018-02-09T11:30:29.620Z,1014.28
2018-02-09T11:31:30.048Z,1014.26
2018-02-09T11:32:30.477Z,1014.26
2018-02-09T11:33:30.907Z,1014.21
2018-02-09T11:34:31.329Z,1014.29
2018-02-09T11:35:31.763Z,1014.23
2018-02-09T11:36:32.183Z,1014.24
2018-02-09T11:37:32.621Z,1014.25
2018-02-09T11:38:33.038Z,1014.20
2018-02-09T11:39:33.465Z,1014.19
2018-02-09T11:40:33.889Z,1014.19
2018-02-09T11:41:34.321Z,1014.20
2018-02-09T11:42:34.743Z,1014.20
2018-02-09T11:43:35.164Z,1014.21
2018-02-09T11:44:35.592Z,1014.21
2018-02-09T11:45:36.025Z,1014.16
2018-02-09T11:46:36.444Z,1014.20
2018-02-09T11:47:36.865Z,1014.22
2018-02-09T11:48:37.296Z,1014.17
2018-02-09T11:49:37.715Z,1014.13
2018-02-09T11:50:38.143Z,1014.10
2018-02-09T11:51:38.567Z,1014.09
2018-02-09T11:52:39.013Z,1014.05
2018-02-09T11:53:39.419Z,1014.08
2018-02-09T11:54:39.841Z,1014.10
2018-02-09T11:55:40.263Z,1014.03
2018-02-09T11:56:40.694Z,1014.01
2018-02-09T11:57:41.123Z,1014.03
2018-02-09T11:58:41.544Z,1014.05
2018-02-09T11:59:41.967Z,1014.07
2018-02-09T12:00:42.393Z,1014.06
2018-02-09T12:01:42.829Z,1014.06
2018-02-09T12:02:43.234Z,1014.05
2018-02-09T12:03:43.657Z,1014.04
2018-02-09T12:04:44.095Z,1014.05
2018-02-09T12:05:44.505Z,1014.00
2018-02-09T12:06:44.935Z,1014.01
2018-02-09T12:07:45.423Z,1013.98
2018-02-09T12:08:45.768Z,1013.97
2018-02-09T12:09:46.197Z,1013.96
2018-02-09T12:10:46.628Z,1013.97
2018-02-09T12:11:47.085Z,1013.99
2018-02-09T12:12:47.580Z,1014.00
2018-02-09T12:13:47.909Z,1013.99